sensor_id;sensor_type;location;lat;lon;timestamp;P1;durP1;ratioP1;P2;durP2;ratioP2
81487;SDS011;70897;52.464;13.428;2023-08-07T00:01:13;5.50;;;3.50;;
81487;SDS011;70897;52.464;13.428;2023-08-07T00:03:58;9.25;;;4.30;;
81487;SDS011;70897;52.464;13.428;2023-08-07T00:06:43;10.07;;;6.03;;
81487;SDS011;70897;52.464;13.428;2023-08-07T00:09:28;9.20;;;4.63;;
81487;SDS011;70897;52.464;13.428;2023-08-07T00:12:13;9.02;;;4.90;;
81487;SDS011;70897;52.464;13.428;2023-08-07T00:14:58;8.40;;;4.82;;
81487;SDS011;70897;52.464;13.428;2023-08-07T00:17:43;6.03;;;4.15;;
81487;SDS011;70897;52.464;13.428;2023-08-07T00:20:28;12.43;;;7.53;;
81487;SDS011;70897;52.464;13.428;2023-08-07T00:23:13;11.18;;;6.47;;
81487;SDS011;70897;52.464;13.428;2023-08-07T00:25:58;8.07;;;5.20;;
81487;SDS011;70897;52.464;13.428;2023-08-07T00:28:43;12.68;;;4.20;;
81487;SDS011;70897;52.464;13.428;2023-08-07T00:31:29;12.13;;;4.47;;
81487;SDS011;70897;52.464;13.428;2023-08-07T00:34:15;8.05;;;4.65;;
81487;SDS011;70897;52.464;13.428;2023-08-07T00:37:01;10.05;;;5.40;;
81487;SDS011;70897;52.464;13.428;2023-08-07T00:39:46;8.50;;;5.93;;
81487;SDS011;70897;52.464;13.428;2023-08-07T00:42:31;10.18;;;5.40;;
81487;SDS011;70897;52.464;13.428;2023-08-07T00:45:16;6.70;;;4.30;;
81487;SDS011;70897;52.464;13.428;2023-08-07T00:48:02;12.27;;;5.53;;
81487;SDS011;70897;52.464;13.428;2023-08-07T00:50:48;13.23;;;6.35;;
81487;SDS011;70897;52.464;13.428;2023-08-07T00:53:37;10.38;;;5.85;;
81487;SDS011;70897;52.464;13.428;2023-08-07T00:56:23;6.30;;;4.45;;
81487;SDS011;70897;52.464;13.428;2023-08-07T00:59:08;6.72;;;4.50;;
81487;SDS011;70897;52.464;13.428;2023-08-07T01:01:54;9.40;;;4.47;;
81487;SDS011;70897;52.464;13.428;2023-08-07T01:04:39;7.32;;;4.30;;
81487;SDS011;70897;52.464;13.428;2023-08-07T01:07:24;9.63;;;4.35;;
81487;SDS011;70897;52.464;13.428;2023-08-07T01:10:09;8.45;;;4.45;;
81487;SDS011;70897;52.464;13.428;2023-08-07T01:12:56;6.18;;;4.07;;
81487;SDS011;70897;52.464;13.428;2023-08-07T01:15:55;6.82;;;3.92;;
81487;SDS011;70897;52.464;13.428;2023-08-07T01:18:44;9.48;;;4.10;;
81487;SDS011;70897;52.464;13.428;2023-08-07T01:21:32;6.57;;;3.78;;
81487;SDS011;70897;52.464;13.428;2023-08-07T01:24:18;6.78;;;3.92;;
81487;SDS011;70897;52.464;13.428;2023-08-07T01:27:12;6.20;;;4.10;;
81487;SDS011;70897;52.464;13.428;2023-08-07T01:30:22;9.13;;;4.15;;
81487;SDS011;70897;52.464;13.428;2023-08-07T01:36:09;6.30;;;4.30;;
81487;SDS011;70897;52.464;13.428;2023-08-07T01:38:56;9.98;;;3.90;;
81487;SDS011;70897;52.464;13.428;2023-08-07T01:41:44;8.43;;;4.03;;
81487;SDS011;70897;52.464;13.428;2023-08-07T01:44:29;7.50;;;4.28;;
81487;SDS011;70897;52.464;13.428;2023-08-07T01:47:15;9.80;;;4.63;;
81487;SDS011;70897;52.464;13.428;2023-08-07T01:50:00;9.35;;;4.63;;
81487;SDS011;70897;52.464;13.428;2023-08-07T01:52:45;10.13;;;5.50;;
81487;SDS011;70897;52.464;13.428;2023-08-07T01:55:31;8.35;;;5.38;;
81487;SDS011;70897;52.464;13.428;2023-08-07T01:58:16;9.43;;;4.65;;
81487;SDS011;70897;52.464;13.428;2023-08-07T02:01:01;9.02;;;4.60;;
81487;SDS011;70897;52.464;13.428;2023-08-07T02:03:46;12.63;;;4.97;;
81487;SDS011;70897;52.464;13.428;2023-08-07T02:06:31;9.07;;;4.25;;
81487;SDS011;70897;52.464;13.428;2023-08-07T02:09:16;6.38;;;4.13;;
81487;SDS011;70897;52.464;13.428;2023-08-07T02:12:01;7.97;;;4.60;;
81487;SDS011;70897;52.464;13.428;2023-08-07T02:14:47;10.20;;;5.72;;
81487;SDS011;70897;52.464;13.428;2023-08-07T02:17:32;10.20;;;5.38;;
81487;SDS011;70897;52.464;13.428;2023-08-07T02:20:17;8.27;;;5.72;;
81487;SDS011;70897;52.464;13.428;2023-08-07T02:23:02;12.98;;;6.43;;
81487;SDS011;70897;52.464;13.428;2023-08-07T02:25:48;12.98;;;7.65;;
81487;SDS011;70897;52.464;13.428;2023-08-07T02:28:33;17.98;;;9.65;;
81487;SDS011;70897;52.464;13.428;2023-08-07T02:31:19;30.75;;;20.25;;
81487;SDS011;70897;52.464;13.428;2023-08-07T02:34:05;18.88;;;12.68;;
81487;SDS011;70897;52.464;13.428;2023-08-07T02:36:50;20.05;;;13.88;;
81487;SDS011;70897;52.464;13.428;2023-08-07T02:39:35;23.77;;;14.48;;
81487;SDS011;70897;52.464;13.428;2023-08-07T02:42:20;22.73;;;15.32;;
81487;SDS011;70897;52.464;13.428;2023-08-07T02:45:05;22.55;;;15.95;;
81487;SDS011;70897;52.464;13.428;2023-08-07T02:47:51;25.83;;;15.10;;
81487;SDS011;70897;52.464;13.428;2023-08-07T02:50:36;20.75;;;13.57;;
81487;SDS011;70897;52.464;13.428;2023-08-07T02:53:20;19.50;;;12.88;;
81487;SDS011;70897;52.464;13.428;2023-08-07T02:56:06;19.88;;;13.30;;
81487;SDS011;70897;52.464;13.428;2023-08-07T02:58:51;18.77;;;12.20;;
81487;SDS011;70897;52.464;13.428;2023-08-07T03:01:36;15.45;;;10.65;;
81487;SDS011;70897;52.464;13.428;2023-08-07T03:04:21;18.60;;;11.15;;
81487;SDS011;70897;52.464;13.428;2023-08-07T03:07:06;16.73;;;9.80;;
81487;SDS011;70897;52.464;13.428;2023-08-07T03:09:51;16.83;;;10.18;;
81487;SDS011;70897;52.464;13.428;2023-08-07T03:12:36;16.92;;;9.90;;
81487;SDS011;70897;52.464;13.428;2023-08-07T03:15:22;17.10;;;9.35;;
81487;SDS011;70897;52.464;13.428;2023-08-07T03:18:07;13.95;;;8.35;;
81487;SDS011;70897;52.464;13.428;2023-08-07T03:20:52;17.38;;;8.40;;
81487;SDS011;70897;52.464;13.428;2023-08-07T03:23:37;13.10;;;8.63;;
81487;SDS011;70897;52.464;13.428;2023-08-07T03:26:25;17.40;;;9.00;;
81487;SDS011;70897;52.464;13.428;2023-08-07T03:29:09;13.65;;;6.75;;
81487;SDS011;70897;52.464;13.428;2023-08-07T03:31:55;13.65;;;6.95;;
81487;SDS011;70897;52.464;13.428;2023-08-07T03:34:41;13.10;;;7.38;;
81487;SDS011;70897;52.464;13.428;2023-08-07T03:37:27;14.80;;;7.50;;
81487;SDS011;70897;52.464;13.428;2023-08-07T03:40:12;12.13;;;7.13;;
81487;SDS011;70897;52.464;13.428;2023-08-07T03:42:58;10.63;;;6.93;;
81487;SDS011;70897;52.464;13.428;2023-08-07T03:45:43;15.23;;;7.63;;
81487;SDS011;70897;52.464;13.428;2023-08-07T03:48:28;9.88;;;7.38;;
81487;SDS011;70897;52.464;13.428;2023-08-07T03:51:14;13.23;;;7.30;;
81487;SDS011;70897;52.464;13.428;2023-08-07T03:54:05;12.82;;;7.15;;
81487;SDS011;70897;52.464;13.428;2023-08-07T03:56:50;11.98;;;6.82;;
81487;SDS011;70897;52.464;13.428;2023-08-07T03:59:36;14.43;;;7.20;;
81487;SDS011;70897;52.464;13.428;2023-08-07T04:02:22;12.20;;;7.22;;
81487;SDS011;70897;52.464;13.428;2023-08-07T04:05:07;15.85;;;7.45;;
81487;SDS011;70897;52.464;13.428;2023-08-07T04:07:53;12.63;;;7.10;;
81487;SDS011;70897;52.464;13.428;2023-08-07T04:10:38;12.25;;;7.30;;
81487;SDS011;70897;52.464;13.428;2023-08-07T04:13:23;11.45;;;6.82;;
81487;SDS011;70897;52.464;13.428;2023-08-07T04:16:08;13.80;;;7.25;;
81487;SDS011;70897;52.464;13.428;2023-08-07T04:18:53;10.90;;;6.40;;
81487;SDS011;70897;52.464;13.428;2023-08-07T04:21:38;13.48;;;6.60;;
81487;SDS011;70897;52.464;13.428;2023-08-07T04:24:23;11.65;;;6.43;;
81487;SDS011;70897;52.464;13.428;2023-08-07T04:27:08;14.55;;;6.30;;
81487;SDS011;70897;52.464;13.428;2023-08-07T04:29:53;10.65;;;6.30;;
81487;SDS011;70897;52.464;13.428;2023-08-07T04:32:38;10.90;;;5.55;;
81487;SDS011;70897;52.464;13.428;2023-08-07T04:35:24;11.95;;;5.40;;
81487;SDS011;70897;52.464;13.428;2023-08-07T04:38:09;8.20;;;5.30;;
81487;SDS011;70897;52.464;13.428;2023-08-07T04:40:54;9.32;;;5.55;;
81487;SDS011;70897;52.464;13.428;2023-08-07T04:43:39;10.57;;;5.45;;
81487;SDS011;70897;52.464;13.428;2023-08-07T04:46:26;8.35;;;5.50;;
81487;SDS011;70897;52.464;13.428;2023-08-07T04:49:11;13.45;;;5.32;;
81487;SDS011;70897;52.464;13.428;2023-08-07T04:51:56;9.88;;;5.05;;
81487;SDS011;70897;52.464;13.428;2023-08-07T04:54:41;7.10;;;4.70;;
81487;SDS011;70897;52.464;13.428;2023-08-07T04:57:26;6.40;;;4.50;;
81487;SDS011;70897;52.464;13.428;2023-08-07T05:00:11;7.72;;;4.28;;
81487;SDS011;70897;52.464;13.428;2023-08-07T05:02:58;9.25;;;5.07;;
81487;SDS011;70897;52.464;13.428;2023-08-07T05:05:43;5.18;;;4.00;;
81487;SDS011;70897;52.464;13.428;2023-08-07T05:08:28;8.32;;;4.20;;
81487;SDS011;70897;52.464;13.428;2023-08-07T05:11:13;8.15;;;4.32;;
81487;SDS011;70897;52.464;13.428;2023-08-07T05:13:58;9.30;;;4.00;;
81487;SDS011;70897;52.464;13.428;2023-08-07T05:16:43;5.57;;;3.95;;
81487;SDS011;70897;52.464;13.428;2023-08-07T05:19:28;8.32;;;3.72;;
81487;SDS011;70897;52.464;13.428;2023-08-07T05:22:14;5.80;;;3.60;;
81487;SDS011;70897;52.464;13.428;2023-08-07T05:24:59;8.77;;;3.95;;
81487;SDS011;70897;52.464;13.428;2023-08-07T05:27:44;5.75;;;3.50;;
81487;SDS011;70897;52.464;13.428;2023-08-07T05:30:30;7.35;;;3.83;;
81487;SDS011;70897;52.464;13.428;2023-08-07T05:33:15;6.10;;;3.40;;
81487;SDS011;70897;52.464;13.428;2023-08-07T05:36:00;7.30;;;3.70;;
81487;SDS011;70897;52.464;13.428;2023-08-07T05:38:45;7.40;;;3.45;;
81487;SDS011;70897;52.464;13.428;2023-08-07T05:41:30;7.80;;;3.40;;
81487;SDS011;70897;52.464;13.428;2023-08-07T05:44:15;5.47;;;3.80;;
81487;SDS011;70897;52.464;13.428;2023-08-07T05:47:00;8.15;;;3.50;;
81487;SDS011;70897;52.464;13.428;2023-08-07T05:49:45;6.88;;;3.45;;
81487;SDS011;70897;52.464;13.428;2023-08-07T05:52:30;8.63;;;3.70;;
81487;SDS011;70897;52.464;13.428;2023-08-07T05:55:15;11.00;;;3.80;;
81487;SDS011;70897;52.464;13.428;2023-08-07T05:58:00;5.80;;;3.17;;
81487;SDS011;70897;52.464;13.428;2023-08-07T06:00:45;6.25;;;3.65;;
81487;SDS011;70897;52.464;13.428;2023-08-07T06:03:30;8.70;;;3.58;;
81487;SDS011;70897;52.464;13.428;2023-08-07T06:06:16;5.15;;;3.13;;
81487;SDS011;70897;52.464;13.428;2023-08-07T06:09:02;6.82;;;3.38;;
81487;SDS011;70897;52.464;13.428;2023-08-07T06:11:48;5.55;;;3.08;;
81487;SDS011;70897;52.464;13.428;2023-08-07T06:14:33;8.40;;;3.55;;
81487;SDS011;70897;52.464;13.428;2023-08-07T06:17:18;5.32;;;2.63;;
81487;SDS011;70897;52.464;13.428;2023-08-07T06:20:03;4.03;;;2.78;;
81487;SDS011;70897;52.464;13.428;2023-08-07T06:22:49;6.30;;;3.13;;
81487;SDS011;70897;52.464;13.428;2023-08-07T06:25:34;6.50;;;3.90;;
81487;SDS011;70897;52.464;13.428;2023-08-07T06:28:19;6.07;;;3.25;;
81487;SDS011;70897;52.464;13.428;2023-08-07T06:31:06;11.27;;;7.75;;
81487;SDS011;70897;52.464;13.428;2023-08-07T06:33:52;11.80;;;4.93;;
81487;SDS011;70897;52.464;13.428;2023-08-07T06:36:37;5.05;;;2.47;;
81487;SDS011;70897;52.464;13.428;2023-08-07T06:39:22;6.25;;;2.53;;
81487;SDS011;70897;52.464;13.428;2023-08-07T06:42:08;6.70;;;2.70;;
81487;SDS011;70897;52.464;13.428;2023-08-07T06:44:53;9.43;;;2.45;;
81487;SDS011;70897;52.464;13.428;2023-08-07T06:47:38;5.50;;;2.63;;
81487;SDS011;70897;52.464;13.428;2023-08-07T06:50:24;6.93;;;2.00;;
81487;SDS011;70897;52.464;13.428;2023-08-07T06:53:09;4.07;;;2.20;;
81487;SDS011;70897;52.464;13.428;2023-08-07T06:55:54;6.07;;;2.40;;
81487;SDS011;70897;52.464;13.428;2023-08-07T06:58:39;5.75;;;2.47;;
81487;SDS011;70897;52.464;13.428;2023-08-07T07:01:24;6.88;;;3.72;;
81487;SDS011;70897;52.464;13.428;2023-08-07T07:04:09;5.35;;;2.40;;
81487;SDS011;70897;52.464;13.428;2023-08-07T07:06:54;20.88;;;11.75;;
81487;SDS011;70897;52.464;13.428;2023-08-07T07:09:39;3.88;;;2.22;;
81487;SDS011;70897;52.464;13.428;2023-08-07T07:12:24;21.70;;;13.25;;
81487;SDS011;70897;52.464;13.428;2023-08-07T07:15:10;7.80;;;3.28;;
81487;SDS011;70897;52.464;13.428;2023-08-07T07:17:55;4.50;;;1.73;;
81487;SDS011;70897;52.464;13.428;2023-08-07T07:20:40;6.68;;;2.10;;
81487;SDS011;70897;52.464;13.428;2023-08-07T07:23:25;4.07;;;2.40;;
81487;SDS011;70897;52.464;13.428;2023-08-07T07:26:11;30.00;;;16.13;;
81487;SDS011;70897;52.464;13.428;2023-08-07T07:28:56;5.25;;;2.85;;
81487;SDS011;70897;52.464;13.428;2023-08-07T07:31:41;7.13;;;2.00;;
81487;SDS011;70897;52.464;13.428;2023-08-07T07:34:26;9.55;;;5.10;;
81487;SDS011;70897;52.464;13.428;2023-08-07T07:37:11;5.30;;;2.58;;
81487;SDS011;70897;52.464;13.428;2023-08-07T07:39:58;7.75;;;3.20;;
81487;SDS011;70897;52.464;13.428;2023-08-07T07:42:43;5.75;;;1.80;;
81487;SDS011;70897;52.464;13.428;2023-08-07T07:45:28;4.22;;;2.00;;
81487;SDS011;70897;52.464;13.428;2023-08-07T07:48:13;5.30;;;1.70;;
81487;SDS011;70897;52.464;13.428;2023-08-07T07:50:59;4.18;;;1.60;;
81487;SDS011;70897;52.464;13.428;2023-08-07T07:53:45;4.72;;;1.92;;
81487;SDS011;70897;52.464;13.428;2023-08-07T07:56:30;9.05;;;4.65;;
81487;SDS011;70897;52.464;13.428;2023-08-07T07:59:15;6.68;;;1.77;;
81487;SDS011;70897;52.464;13.428;2023-08-07T08:02:00;11.35;;;7.65;;
81487;SDS011;70897;52.464;13.428;2023-08-07T08:04:45;4.80;;;2.03;;
81487;SDS011;70897;52.464;13.428;2023-08-07T08:07:32;4.03;;;1.63;;
81487;SDS011;70897;52.464;13.428;2023-08-07T08:10:18;4.43;;;1.70;;
81487;SDS011;70897;52.464;13.428;2023-08-07T08:13:03;3.55;;;1.80;;
81487;SDS011;70897;52.464;13.428;2023-08-07T08:15:48;3.53;;;1.67;;
81487;SDS011;70897;52.464;13.428;2023-08-07T08:18:33;3.50;;;1.85;;
81487;SDS011;70897;52.464;13.428;2023-08-07T08:21:18;4.50;;;2.30;;
81487;SDS011;70897;52.464;13.428;2023-08-07T08:24:03;5.53;;;2.08;;
81487;SDS011;70897;52.464;13.428;2023-08-07T08:26:49;5.00;;;2.20;;
81487;SDS011;70897;52.464;13.428;2023-08-07T08:29:34;4.80;;;2.20;;
81487;SDS011;70897;52.464;13.428;2023-08-07T08:32:19;5.72;;;1.92;;
81487;SDS011;70897;52.464;13.428;2023-08-07T08:35:04;3.22;;;1.95;;
81487;SDS011;70897;52.464;13.428;2023-08-07T08:37:50;4.15;;;2.53;;
81487;SDS011;70897;52.464;13.428;2023-08-07T08:40:35;6.03;;;2.17;;
81487;SDS011;70897;52.464;13.428;2023-08-07T08:43:22;4.63;;;1.92;;
81487;SDS011;70897;52.464;13.428;2023-08-07T08:46:08;4.20;;;2.00;;
81487;SDS011;70897;52.464;13.428;2023-08-07T08:48:55;4.13;;;1.90;;
81487;SDS011;70897;52.464;13.428;2023-08-07T08:51:43;3.25;;;1.70;;
81487;SDS011;70897;52.464;13.428;2023-08-07T08:54:29;4.30;;;1.75;;
81487;SDS011;70897;52.464;13.428;2023-08-07T08:57:15;4.97;;;2.00;;
81487;SDS011;70897;52.464;13.428;2023-08-07T09:00:01;5.15;;;2.67;;
81487;SDS011;70897;52.464;13.428;2023-08-07T09:02:54;2.88;;;1.90;;
81487;SDS011;70897;52.464;13.428;2023-08-07T09:05:40;6.45;;;1.92;;
81487;SDS011;70897;52.464;13.428;2023-08-07T09:08:26;5.30;;;2.00;;
81487;SDS011;70897;52.464;13.428;2023-08-07T09:11:14;3.45;;;1.73;;
81487;SDS011;70897;52.464;13.428;2023-08-07T09:13:59;3.63;;;1.83;;
81487;SDS011;70897;52.464;13.428;2023-08-07T09:16:47;5.28;;;2.40;;
81487;SDS011;70897;52.464;13.428;2023-08-07T09:19:33;5.43;;;1.83;;
81487;SDS011;70897;52.464;13.428;2023-08-07T09:22:18;7.68;;;3.05;;
81487;SDS011;70897;52.464;13.428;2023-08-07T09:25:04;3.58;;;2.30;;
81487;SDS011;70897;52.464;13.428;2023-08-07T09:27:49;6.22;;;2.70;;
81487;SDS011;70897;52.464;13.428;2023-08-07T09:30:35;6.13;;;2.65;;
81487;SDS011;70897;52.464;13.428;2023-08-07T09:33:25;5.38;;;2.53;;
81487;SDS011;70897;52.464;13.428;2023-08-07T09:36:11;4.82;;;2.50;;
81487;SDS011;70897;52.464;13.428;2023-08-07T09:39:00;5.32;;;2.30;;
81487;SDS011;70897;52.464;13.428;2023-08-07T09:41:50;3.10;;;2.08;;
81487;SDS011;70897;52.464;13.428;2023-08-07T09:44:36;4.13;;;2.10;;
81487;SDS011;70897;52.464;13.428;2023-08-07T09:47:22;3.85;;;2.00;;
81487;SDS011;70897;52.464;13.428;2023-08-07T09:50:07;3.15;;;1.92;;
81487;SDS011;70897;52.464;13.428;2023-08-07T09:52:52;4.95;;;2.10;;
81487;SDS011;70897;52.464;13.428;2023-08-07T09:55:38;4.60;;;1.90;;
81487;SDS011;70897;52.464;13.428;2023-08-07T09:58:23;5.57;;;2.53;;
81487;SDS011;70897;52.464;13.428;2023-08-07T10:01:08;2.25;;;1.70;;
81487;SDS011;70897;52.464;13.428;2023-08-07T10:03:54;5.28;;;2.20;;
81487;SDS011;70897;52.464;13.428;2023-08-07T10:06:39;3.38;;;1.65;;
81487;SDS011;70897;52.464;13.428;2023-08-07T10:09:25;4.57;;;2.05;;
81487;SDS011;70897;52.464;13.428;2023-08-07T10:12:11;6.97;;;3.28;;
81487;SDS011;70897;52.464;13.428;2023-08-07T10:14:57;3.80;;;2.28;;
81487;SDS011;70897;52.464;13.428;2023-08-07T10:17:43;5.38;;;2.90;;
81487;SDS011;70897;52.464;13.428;2023-08-07T10:20:29;5.03;;;1.80;;
81487;SDS011;70897;52.464;13.428;2023-08-07T10:23:14;8.75;;;1.98;;
81487;SDS011;70897;52.464;13.428;2023-08-07T10:26:03;19.15;;;11.55;;
81487;SDS011;70897;52.464;13.428;2023-08-07T10:29:10;3.08;;;1.60;;
81487;SDS011;70897;52.464;13.428;2023-08-07T10:31:58;8.02;;;2.55;;
81487;SDS011;70897;52.464;13.428;2023-08-07T10:34:52;8.13;;;4.03;;
81487;SDS011;70897;52.464;13.428;2023-08-07T10:37:41;5.93;;;2.80;;
81487;SDS011;70897;52.464;13.428;2023-08-07T10:40:27;3.70;;;1.88;;
81487;SDS011;70897;52.464;13.428;2023-08-07T10:43:13;3.33;;;1.48;;
81487;SDS011;70897;52.464;13.428;2023-08-07T10:46:05;3.60;;;1.38;;
81487;SDS011;70897;52.464;13.428;2023-08-07T10:48:57;5.25;;;2.15;;
81487;SDS011;70897;52.464;13.428;2023-08-07T10:51:42;7.47;;;1.67;;
81487;SDS011;70897;52.464;13.428;2023-08-07T10:54:29;4.32;;;2.10;;
81487;SDS011;70897;52.464;13.428;2023-08-07T10:57:15;2.72;;;1.27;;
81487;SDS011;70897;52.464;13.428;2023-08-07T11:00:02;11.93;;;6.90;;
81487;SDS011;70897;52.464;13.428;2023-08-07T11:02:50;5.40;;;1.50;;
81487;SDS011;70897;52.464;13.428;2023-08-07T11:05:35;3.80;;;1.60;;
81487;SDS011;70897;52.464;13.428;2023-08-07T11:08:23;2.78;;;1.50;;
81487;SDS011;70897;52.464;13.428;2023-08-07T11:11:08;3.55;;;1.20;;
81487;SDS011;70897;52.464;13.428;2023-08-07T11:13:53;4.82;;;1.70;;
81487;SDS011;70897;52.464;13.428;2023-08-07T11:16:39;4.75;;;1.83;;
81487;SDS011;70897;52.464;13.428;2023-08-07T11:19:24;4.57;;;1.55;;
81487;SDS011;70897;52.464;13.428;2023-08-07T11:22:09;5.82;;;1.85;;
81487;SDS011;70897;52.464;13.428;2023-08-07T11:24:54;4.30;;;1.95;;
81487;SDS011;70897;52.464;13.428;2023-08-07T11:27:40;4.68;;;1.50;;
81487;SDS011;70897;52.464;13.428;2023-08-07T11:30:27;3.10;;;1.48;;
81487;SDS011;70897;52.464;13.428;2023-08-07T11:33:12;3.00;;;1.50;;
81487;SDS011;70897;52.464;13.428;2023-08-07T11:35:58;5.25;;;1.55;;
81487;SDS011;70897;52.464;13.428;2023-08-07T11:38:44;3.65;;;1.60;;
81487;SDS011;70897;52.464;13.428;2023-08-07T11:41:31;2.72;;;1.50;;
81487;SDS011;70897;52.464;13.428;2023-08-07T11:44:16;4.07;;;1.73;;
81487;SDS011;70897;52.464;13.428;2023-08-07T11:47:02;4.30;;;1.98;;
81487;SDS011;70897;52.464;13.428;2023-08-07T11:49:47;3.17;;;2.00;;
81487;SDS011;70897;52.464;13.428;2023-08-07T11:52:32;5.45;;;1.90;;
81487;SDS011;70897;52.464;13.428;2023-08-07T11:55:17;4.38;;;1.70;;
81487;SDS011;70897;52.464;13.428;2023-08-07T11:58:03;10.65;;;6.13;;
81487;SDS011;70897;52.464;13.428;2023-08-07T12:00:47;4.63;;;1.90;;
81487;SDS011;70897;52.464;13.428;2023-08-07T12:03:35;2.95;;;1.48;;
81487;SDS011;70897;52.464;13.428;2023-08-07T12:06:24;3.92;;;1.55;;
81487;SDS011;70897;52.464;13.428;2023-08-07T12:09:11;4.30;;;1.50;;
81487;SDS011;70897;52.464;13.428;2023-08-07T12:11:57;4.35;;;1.85;;
81487;SDS011;70897;52.464;13.428;2023-08-07T12:14:42;5.88;;;2.65;;
81487;SDS011;70897;52.464;13.428;2023-08-07T12:17:30;5.30;;;2.40;;
81487;SDS011;70897;52.464;13.428;2023-08-07T12:20:18;5.82;;;2.00;;
81487;SDS011;70897;52.464;13.428;2023-08-07T12:23:03;5.32;;;1.80;;
81487;SDS011;70897;52.464;13.428;2023-08-07T12:25:48;3.80;;;1.58;;
81487;SDS011;70897;52.464;13.428;2023-08-07T12:28:36;7.25;;;2.75;;
81487;SDS011;70897;52.464;13.428;2023-08-07T12:31:21;4.93;;;1.90;;
81487;SDS011;70897;52.464;13.428;2023-08-07T12:34:06;3.75;;;1.92;;
81487;SDS011;70897;52.464;13.428;2023-08-07T12:36:53;5.72;;;2.10;;
81487;SDS011;70897;52.464;13.428;2023-08-07T12:39:38;5.22;;;1.70;;
81487;SDS011;70897;52.464;13.428;2023-08-07T12:42:23;5.00;;;1.63;;
81487;SDS011;70897;52.464;13.428;2023-08-07T12:45:08;8.70;;;3.10;;
81487;SDS011;70897;52.464;13.428;2023-08-07T12:47:53;9.30;;;4.15;;
81487;SDS011;70897;52.464;13.428;2023-08-07T12:50:38;5.03;;;2.00;;
81487;SDS011;70897;52.464;13.428;2023-08-07T12:53:23;9.30;;;2.00;;
81487;SDS011;70897;52.464;13.428;2023-08-07T12:56:09;5.22;;;1.90;;
81487;SDS011;70897;52.464;13.428;2023-08-07T12:58:54;5.90;;;1.73;;
81487;SDS011;70897;52.464;13.428;2023-08-07T13:01:39;6.75;;;2.13;;
81487;SDS011;70897;52.464;13.428;2023-08-07T13:04:24;7.43;;;2.20;;
81487;SDS011;70897;52.464;13.428;2023-08-07T13:07:09;8.68;;;2.35;;
81487;SDS011;70897;52.464;13.428;2023-08-07T13:09:55;11.25;;;2.53;;
81487;SDS011;70897;52.464;13.428;2023-08-07T13:12:42;6.95;;;2.38;;
81487;SDS011;70897;52.464;13.428;2023-08-07T13:15:28;6.55;;;2.28;;
81487;SDS011;70897;52.464;13.428;2023-08-07T13:18:14;11.63;;;2.63;;
81487;SDS011;70897;52.464;13.428;2023-08-07T13:21:01;7.38;;;2.70;;
81487;SDS011;70897;52.464;13.428;2023-08-07T13:23:46;7.47;;;2.40;;
81487;SDS011;70897;52.464;13.428;2023-08-07T13:26:31;6.03;;;2.30;;
81487;SDS011;70897;52.464;13.428;2023-08-07T13:29:16;6.43;;;2.28;;
81487;SDS011;70897;52.464;13.428;2023-08-07T13:32:02;6.43;;;2.20;;
81487;SDS011;70897;52.464;13.428;2023-08-07T13:34:53;9.50;;;2.33;;
81487;SDS011;70897;52.464;13.428;2023-08-07T13:37:38;6.93;;;2.40;;
81487;SDS011;70897;52.464;13.428;2023-08-07T13:40:23;7.60;;;2.58;;
81487;SDS011;70897;52.464;13.428;2023-08-07T13:43:08;9.98;;;2.55;;
81487;SDS011;70897;52.464;13.428;2023-08-07T13:45:53;8.75;;;2.38;;
81487;SDS011;70897;52.464;13.428;2023-08-07T13:48:39;8.23;;;2.50;;
81487;SDS011;70897;52.464;13.428;2023-08-07T13:51:24;7.03;;;2.35;;
81487;SDS011;70897;52.464;13.428;2023-08-07T13:54:09;5.28;;;2.28;;
81487;SDS011;70897;52.464;13.428;2023-08-07T13:56:54;7.80;;;2.35;;
81487;SDS011;70897;52.464;13.428;2023-08-07T13:59:39;7.40;;;2.28;;
81487;SDS011;70897;52.464;13.428;2023-08-07T14:02:25;5.60;;;2.03;;
81487;SDS011;70897;52.464;13.428;2023-08-07T14:05:10;8.43;;;1.90;;
81487;SDS011;70897;52.464;13.428;2023-08-07T14:07:55;5.93;;;2.08;;
81487;SDS011;70897;52.464;13.428;2023-08-07T14:10:42;5.15;;;2.10;;
81487;SDS011;70897;52.464;13.428;2023-08-07T14:13:27;5.47;;;1.95;;
81487;SDS011;70897;52.464;13.428;2023-08-07T14:16:12;5.95;;;1.80;;
81487;SDS011;70897;52.464;13.428;2023-08-07T14:18:57;5.00;;;2.05;;
81487;SDS011;70897;52.464;13.428;2023-08-07T14:21:42;8.43;;;2.22;;
81487;SDS011;70897;52.464;13.428;2023-08-07T14:24:27;8.70;;;2.38;;
81487;SDS011;70897;52.464;13.428;2023-08-07T14:27:12;7.95;;;2.42;;
81487;SDS011;70897;52.464;13.428;2023-08-07T14:29:58;8.77;;;2.42;;
81487;SDS011;70897;52.464;13.428;2023-08-07T14:32:43;8.02;;;2.70;;
81487;SDS011;70897;52.464;13.428;2023-08-07T14:35:27;9.13;;;2.20;;
81487;SDS011;70897;52.464;13.428;2023-08-07T14:38:13;6.35;;;2.15;;
81487;SDS011;70897;52.464;13.428;2023-08-07T14:40:58;9.25;;;2.53;;
81487;SDS011;70897;52.464;13.428;2023-08-07T14:43:44;9.20;;;2.80;;
81487;SDS011;70897;52.464;13.428;2023-08-07T14:46:30;7.13;;;2.20;;
81487;SDS011;70897;52.464;13.428;2023-08-07T14:49:15;8.82;;;2.17;;
81487;SDS011;70897;52.464;13.428;2023-08-07T14:52:00;9.52;;;2.45;;
81487;SDS011;70897;52.464;13.428;2023-08-07T14:54:45;8.55;;;2.30;;
81487;SDS011;70897;52.464;13.428;2023-08-07T14:57:30;8.15;;;2.30;;
81487;SDS011;70897;52.464;13.428;2023-08-07T15:00:15;8.25;;;2.28;;
81487;SDS011;70897;52.464;13.428;2023-08-07T15:03:01;6.63;;;2.25;;
81487;SDS011;70897;52.464;13.428;2023-08-07T15:05:47;9.23;;;2.70;;
81487;SDS011;70897;52.464;13.428;2023-08-07T15:08:32;5.88;;;2.20;;
81487;SDS011;70897;52.464;13.428;2023-08-07T15:11:17;12.73;;;2.50;;
81487;SDS011;70897;52.464;13.428;2023-08-07T15:14:02;7.18;;;2.00;;
81487;SDS011;70897;52.464;13.428;2023-08-07T15:16:48;8.52;;;2.58;;
81487;SDS011;70897;52.464;13.428;2023-08-07T15:19:33;7.50;;;2.45;;
81487;SDS011;70897;52.464;13.428;2023-08-07T15:22:18;5.97;;;2.05;;
81487;SDS011;70897;52.464;13.428;2023-08-07T15:25:03;8.68;;;2.95;;
81487;SDS011;70897;52.464;13.428;2023-08-07T15:27:49;10.23;;;2.75;;
81487;SDS011;70897;52.464;13.428;2023-08-07T15:30:34;9.13;;;2.00;;
81487;SDS011;70897;52.464;13.428;2023-08-07T15:33:19;7.68;;;2.22;;
81487;SDS011;70897;52.464;13.428;2023-08-07T15:36:04;8.30;;;2.40;;
81487;SDS011;70897;52.464;13.428;2023-08-07T15:38:49;8.40;;;2.45;;
81487;SDS011;70897;52.464;13.428;2023-08-07T15:41:35;8.27;;;2.40;;
81487;SDS011;70897;52.464;13.428;2023-08-07T15:44:20;8.90;;;2.80;;
81487;SDS011;70897;52.464;13.428;2023-08-07T15:47:06;8.05;;;2.40;;
81487;SDS011;70897;52.464;13.428;2023-08-07T15:49:51;6.68;;;2.22;;
81487;SDS011;70897;52.464;13.428;2023-08-07T15:52:36;10.60;;;3.58;;
81487;SDS011;70897;52.464;13.428;2023-08-07T15:55:21;8.93;;;2.25;;
81487;SDS011;70897;52.464;13.428;2023-08-07T15:58:06;14.52;;;4.35;;
81487;SDS011;70897;52.464;13.428;2023-08-07T16:00:51;18.25;;;8.63;;
81487;SDS011;70897;52.464;13.428;2023-08-07T16:03:36;10.43;;;2.80;;
81487;SDS011;70897;52.464;13.428;2023-08-07T16:06:21;8.18;;;3.33;;
81487;SDS011;70897;52.464;13.428;2023-08-07T16:09:06;10.38;;;3.58;;
81487;SDS011;70897;52.464;13.428;2023-08-07T16:11:51;15.68;;;5.38;;
81487;SDS011;70897;52.464;13.428;2023-08-07T16:14:55;11.45;;;2.63;;
81487;SDS011;70897;52.464;13.428;2023-08-07T16:17:43;10.52;;;2.85;;
81487;SDS011;70897;52.464;13.428;2023-08-07T16:20:28;8.52;;;2.50;;
81487;SDS011;70897;52.464;13.428;2023-08-07T16:23:13;7.20;;;2.45;;